Puritan, Pennsylvania
Current Conditions -  °F | °C
As of 4:54 PM on Friday 31 Oct 2014 (Local Time) from KJST Reporting Station
Overcast Overcast  
Wind Chill: 42°   Ceiling: 3500
Heat Index: 42°   Visibility: 10mi
Dew Point: 33°   Wind: 3mph
Humidity: 70%   Direction: 100°E
Pressure: 29.82"   Gusts: NA
Location:  40.3821°N, 78.6524°W
Report Text: KJST 312054Z AUTO 10003KT 10SM OVC035 06/01 A2982 RMK AO2 RAB07E17 SLP109 P0000 60000 T00560006 56010
Loading
Personal Weather Stations






























Interactive Weather Map
Tropical Storm Tracking
New forecast layout! Learn more

10-Day Weather Forecast

Advertisements
Track Severe Weather on mobile